Time;durP1;ratioP1;P1;durP2;ratioP2;P2;SDS_P1;SDS_P2;PMS_P1;PMS_P2;Temp;Humidity;BMP_temperature;BMP_pressure;BME280_temperature;BME280_humidity;BME280_pressure;Samples;Min_cycle;Max_cycle;Signal;HPM_P1;HPM_P2
2021/07/20 00:00:19;;;;;;;21.60;10.15;;;;;;;15.34;100.00;98059.63;4985698;28;20042;-79
2021/07/20 00:02:48;;;;;;;20.05;9.70;;;;;;;15.30;100.00;98064.97;4993132;28;20046;-80
2021/07/20 00:05:21;;;;;;;20.55;8.88;;;;;;;15.26;100.00;98060.47;4987057;28;20042;-80
2021/07/20 00:07:52;;;;;;;16.83;7.95;;;;;;;15.33;100.00;98071.69;4970266;28;20066;-80
2021/07/20 00:10:57;;;;;;;19.08;8.05;;;;;;;15.27;100.00;98068.34;4987809;28;20035;-81
2021/07/20 00:13:24;;;;;;;16.30;7.28;;;;;;;15.26;100.00;98058.56;4936268;28;20059;-81
2021/07/20 00:15:55;;;;;;;15.18;8.13;;;;;;;15.38;100.00;98057.81;4967617;28;20087;-82
2021/07/20 00:18:28;;;;;;;13.50;7.95;;;;;;;15.36;100.00;98049.16;4985811;28;20070;-80
2021/07/20 00:20:57;;;;;;;13.63;7.53;;;;;;;15.45;100.00;98039.81;4943700;28;1233424;-81
2021/07/20 00:23:23;;;;;;;15.93;7.05;;;;;;;15.51;100.00;98046.63;4986900;28;20065;-81
2021/07/20 00:25:51;;;;;;;10.02;6.05;;;;;;;15.48;100.00;98019.22;4968985;28;20046;-79
2021/07/20 00:28:23;;;;;;;16.98;6.88;;;;;;;15.57;100.00;98033.56;4986827;28;20061;-80
2021/07/20 00:30:50;;;;;;;11.38;5.88;;;;;;;15.53;100.00;98027.19;4969474;28;20061;-79
2021/07/20 00:33:18;;;;;;;15.20;6.60;;;;;;;15.54;100.00;98026.84;4994560;28;20057;-79
2021/07/20 00:35:45;;;;;;;13.00;6.38;;;;;;;15.54;100.00;98026.06;5007263;28;20112;-81
2021/07/20 00:38:15;;;;;;;15.65;6.63;;;;;;;15.45;100.00;98028.06;5006908;28;20481;-82
2021/07/20 00:40:43;;;;;;;17.05;6.38;;;;;;;15.35;100.00;98029.28;5025944;28;20413;-81
2021/07/20 00:43:12;;;;;;;12.82;6.78;;;;;;;15.39;100.00;98029.38;5008965;28;20052;-79
2021/07/20 00:45:41;;;;;;;16.15;6.65;;;;;;;15.42;100.00;98034.19;5026282;28;20037;-81
2021/07/20 00:48:09;;;;;;;14.77;7.35;;;;;;;15.42;100.00;98036.91;5027022;28;20056;-80
2021/07/20 00:50:40;;;;;;;16.85;7.18;;;;;;;15.41;100.00;98033.38;5008765;28;20068;-81
2021/07/20 00:53:09;;;;;;;15.32;6.85;;;;;;;15.39;100.00;98032.13;5009451;28;20386;-80
2021/07/20 00:55:37;;;;;;;17.88;6.85;;;;;;;15.36;100.00;98043.69;5008841;28;20049;-82
2021/07/20 00:58:05;;;;;;;15.20;6.55;;;;;;;15.32;100.00;98020.97;5028411;28;20046;-79
2021/07/20 01:00:37;;;;;;;16.17;6.47;;;;;;;15.35;100.00;98036.66;4995193;28;20049;-79
2021/07/20 01:03:06;;;;;;;12.63;6.57;;;;;;;15.29;100.00;98043.44;5027676;28;20048;-82
2021/07/20 01:05:34;;;;;;;12.70;6.75;;;;;;;15.24;100.00;98043.66;5007595;28;20034;-79
2021/07/20 01:08:05;;;;;;;13.25;6.50;;;;;;;15.19;100.00;98046.59;5025921;28;20053;-79
2021/07/20 01:10:35;;;;;;;13.45;6.45;;;;;;;15.10;100.00;98049.38;5025837;28;20053;-81
2021/07/20 01:13:02;;;;;;;14.35;7.22;;;;;;;15.09;100.00;98039.63;5027016;28;20046;-80
2021/07/20 01:15:30;;;;;;;15.82;7.03;;;;;;;15.03;100.00;98038.22;5026012;28;20107;-81
2021/07/20 01:17:57;;;;;;;13.15;6.63;;;;;;;15.09;100.00;98034.19;5026596;28;20060;-81
2021/07/20 01:20:27;;;;;;;15.63;7.57;;;;;;;15.06;100.00;98034.84;5026250;28;20047;-81
2021/07/20 01:23:09;;;;;;;15.95;7.53;;;;;;;15.03;100.00;98026.53;5009421;28;20046;-83
2021/07/20 01:25:38;;;;;;;13.82;7.43;;;;;;;15.08;100.00;98013.47;5009037;28;20125;-80
2021/07/20 01:28:07;;;;;;;15.70;6.60;;;;;;;15.12;100.00;98028.06;5028260;28;20037;-80
2021/07/20 01:30:38;;;;;;;14.50;7.15;;;;;;;15.12;100.00;98027.25;5026967;28;20033;-81
2021/07/20 01:33:06;;;;;;;15.93;7.35;;;;;;;15.05;100.00;98043.34;5009372;28;20064;-83
2021/07/20 01:35:34;;;;;;;16.55;7.97;;;;;;;14.96;100.00;98027.88;5028985;28;20049;-81
2021/07/20 01:38:03;;;;;;;15.30;7.40;;;;;;;15.04;100.00;98034.38;5013130;28;20046;-80
2021/07/20 01:40:33;;;;;;;14.05;7.07;;;;;;;15.05;100.00;98035.16;4993767;28;20048;-81
2021/07/20 01:43:05;;;;;;;14.80;7.50;;;;;;;14.95;100.00;98020.81;4977619;28;20092;-81
2021/07/20 01:45:36;;;;;;;22.65;7.97;;;;;;;14.92;100.00;98031.56;5011668;28;20517;-80
2021/07/20 01:48:06;;;;;;;19.40;7.68;;;;;;;14.97;100.00;98020.47;5013223;28;20046;-80
2021/07/20 01:50:35;;;;;;;15.35;6.57;;;;;;;14.99;100.00;98029.91;4995746;28;20061;-81
2021/07/20 01:53:04;;;;;;;18.27;7.53;;;;;;;14.95;100.00;98029.00;4997544;28;20429;-81
2021/07/20 01:55:30;;;;;;;24.05;7.75;;;;;;;15.00;100.00;98030.72;5014896;28;20053;-81
2021/07/20 01:57:58;;;;;;;21.98;7.53;;;;;;;14.98;100.00;98028.31;4996313;28;20715;-80
2021/07/20 02:00:25;;;;;;;17.00;7.63;;;;;;;14.98;100.00;98022.06;4996730;28;20042;-80
2021/07/20 02:08:32;;;;;;;17.60;6.95;;;;;;;14.95;100.00;98023.53;5018116;28;20513;-79
2021/07/20 02:11:06;;;;;;;12.65;7.43;;;;;;;14.93;100.00;98016.81;5000490;28;20038;-79
2021/07/20 02:13:43;;;;;;;20.08;7.38;;;;;;;14.94;100.00;98027.38;5022993;28;20060;-81
2021/07/20 02:16:13;;;;;;;19.58;8.23;;;;;;;14.96;100.00;98027.88;5031458;28;20072;-81
2021/07/20 02:18:45;;;;;;;14.95;7.47;;;;;;;14.94;100.00;98023.88;5033784;28;20062;-80
2021/07/20 02:21:18;;;;;;;13.23;7.55;;;;;;;14.98;100.00;98030.25;5015958;28;20133;-79
2021/07/20 02:23:50;;;;;;;16.10;7.93;;;;;;;14.95;100.00;98020.00;5031950;28;20133;-80
2021/07/20 02:26:18;;;;;;;15.85;7.45;;;;;;;14.94;100.00;98024.66;5030100;28;20624;-81
2021/07/20 02:28:45;;;;;;;18.10;7.88;;;;;;;15.01;100.00;98031.50;5029596;28;20537;-80
2021/07/20 02:31:14;;;;;;;17.48;7.07;;;;;;;14.97;100.00;98028.66;5027320;28;20157;-79
2021/07/20 02:33:42;;;;;;;15.40;7.80;;;;;;;15.04;100.00;98033.56;5023310;28;20125;-78
2021/07/20 02:36:09;;;;;;;15.15;7.57;;;;;;;15.07;100.00;98031.00;5000353;28;20464;-78
2021/07/20 02:38:38;;;;;;;17.63;7.82;;;;;;;15.06;100.00;98034.03;5000627;28;20041;-79
2021/07/20 02:41:10;;;;;;;15.90;7.57;;;;;;;15.06;100.00;98031.31;5002094;28;20045;-81
2021/07/20 02:43:39;;;;;;;20.83;7.15;;;;;;;15.02;100.00;98035.84;5017314;28;20246;-79
2021/07/20 02:46:08;;;;;;;19.00;7.72;;;;;;;14.97;100.00;98034.09;5018846;28;20046;-80
2021/07/20 02:48:37;;;;;;;14.30;7.30;;;;;;;14.97;100.00;98034.91;5000148;28;20046;-80
2021/07/20 02:51:10;;;;;;;17.98;7.28;;;;;;;14.99;100.00;98038.09;5013856;28;20060;-81
2021/07/20 02:53:40;;;;;;;14.30;7.22;;;;;;;15.03;100.00;98031.97;4996605;28;20053;-81
2021/07/20 02:56:11;;;;;;;17.80;7.55;;;;;;;14.99;100.00;98029.91;4991150;28;20425;-81
2021/07/20 02:58:43;;;;;;;12.63;6.93;;;;;;;14.98;100.00;98008.44;4983438;28;20472;-80
2021/07/20 03:01:11;;;;;;;22.67;7.70;;;;;;;15.05;100.00;98032.44;5017137;28;20045;-80
2021/07/20 03:03:45;;;;;;;16.08;7.68;;;;;;;15.05;100.00;98035.97;5000992;28;20038;-80
2021/07/20 03:06:13;;;;;;;14.88;7.25;;;;;;;15.04;100.00;98028.13;5016451;28;20038;-81
2021/07/20 03:08:43;;;;;;;16.70;7.35;;;;;;;15.02;100.00;98020.25;5017375;28;20053;-80
2021/07/20 03:11:13;;;;;;;18.38;8.15;;;;;;;14.99;100.00;98029.91;5006545;28;20042;-80
2021/07/20 03:13:47;;;;;;;13.75;7.70;;;;;;;14.96;100.00;98027.88;4997148;28;20089;-79
2021/07/20 03:16:15;;;;;;;13.40;7.78;;;;;;;14.98;100.00;98028.31;4981510;28;20050;-80
2021/07/20 03:18:44;;;;;;;16.80;7.35;;;;;;;14.93;100.00;98025.00;5002392;28;20052;-79
2021/07/20 03:21:14;;;;;;;18.13;7.70;;;;;;;15.01;100.00;98032.31;5004309;23;20045;-80
2021/07/20 03:23:43;;;;;;;13.40;7.75;;;;;;;15.03;100.00;98019.13;5036932;28;20045;-82
2021/07/20 03:26:13;;;;;;;17.17;7.47;;;;;;;15.02;100.00;98017.53;5038367;28;20610;-80
2021/07/20 03:28:42;;;;;;;19.58;7.75;;;;;;;15.08;100.00;98027.13;5017157;28;20037;-81
2021/07/20 03:31:10;;;;;;;17.83;8.63;;;;;;;15.17;100.00;98025.13;5022682;28;20042;-82
2021/07/20 03:33:38;;;;;;;21.08;8.15;;;;;;;15.16;100.00;98026.25;5014012;28;20061;-81
2021/07/20 03:36:06;;;;;;;15.18;8.13;;;;;;;15.17;100.00;98024.31;5031272;28;20069;-80
2021/07/20 03:38:34;;;;;;;20.95;7.85;;;;;;;15.16;100.00;98025.44;5029821;28;20067;-81
2021/07/20 03:41:01;;;;;;;20.92;8.57;;;;;;;15.10;100.00;98024.84;5003894;28;20587;-81
2021/07/20 03:43:28;;;;;;;14.88;8.38;;;;;;;15.13;100.00;98018.72;5019109;28;20045;-81
2021/07/20 03:45:56;;;;;;;19.17;8.70;;;;;;;15.18;100.00;98025.91;5035972;28;20481;-81
2021/07/20 03:48:23;;;;;;;14.40;8.02;;;;;;;15.13;100.00;98020.66;5035415;28;20185;-80
2021/07/20 03:50:53;;;;;;;20.23;8.23;;;;;;;15.12;100.00;98029.97;5036619;28;20069;-81
2021/07/20 03:53:20;;;;;;;15.55;8.13;;;;;;;15.12;100.00;98014.44;5018366;28;20049;-78
2021/07/20 03:55:54;;;;;;;22.90;8.45;;;;;;;15.09;100.00;98020.53;5017910;28;20057;-79
2021/07/20 03:58:21;;;;;;;17.45;8.25;;;;;;;15.09;100.00;98020.53;5020928;28;20077;-80
2021/07/20 04:00:51;;;;;;;18.55;8.63;;;;;;;15.17;100.00;98029.78;5017898;28;20519;-80
2021/07/20 04:03:21;;;;;;;20.45;8.15;;;;;;;15.08;100.00;98024.38;5036587;28;20068;-81
2021/07/20 04:06:00;;;;;;;17.15;8.88;;;;;;;15.13;100.00;98026.91;5004257;28;20061;-82
2021/07/20 04:08:27;;;;;;;20.67;8.43;;;;;;;15.19;100.00;98025.56;5031088;28;20042;-82
2021/07/20 04:10:55;;;;;;;17.70;7.88;;;;;;;15.18;100.00;98018.53;5020548;28;20053;-81
2021/07/20 04:13:22;;;;;;;16.65;7.80;;;;;;;15.19;100.00;98024.78;5038243;28;20092;-81
2021/07/20 04:15:53;;;;;;;20.00;7.93;;;;;;;15.27;100.00;98018.44;5037544;28;20052;-81
2021/07/20 04:18:30;;;;;;;18.75;9.25;;;;;;;15.24;100.00;98016.38;5037096;28;20575;-82
2021/07/20 04:21:07;;;;;;;18.83;8.20;;;;;;;15.19;100.00;98030.22;5039047;28;20041;-81
2021/07/20 04:23:35;;;;;;;14.80;7.75;;;;;;;15.13;100.00;98016.00;5037065;28;20049;-81
2021/07/20 04:26:03;;;;;;;17.15;8.25;;;;;;;15.16;100.00;98026.25;5041838;28;20158;-81
2021/07/20 04:28:29;;;;;;;19.52;8.00;;;;;;;15.12;100.00;98032.72;5030040;28;20045;-80
2021/07/20 04:30:59;;;;;;;19.80;8.75;;;;;;;15.14;100.00;98030.44;5030563;28;20052;-79
2021/07/20 04:33:31;;;;;;;21.42;9.27;;;;;;;15.13;100.00;98024.19;5050418;28;20049;-80
2021/07/20 04:35:59;;;;;;;26.75;9.30;;;;;;;15.07;100.00;98032.91;5048222;28;20109;-79
2021/07/20 04:38:28;;;;;;;22.63;8.98;;;;;;;15.09;100.00;98033.38;5020397;28;20045;-80
2021/07/20 04:40:56;;;;;;;17.17;8.88;;;;;;;15.11;100.00;98042.81;5034439;28;20053;-80
2021/07/20 04:43:23;;;;;;;23.30;9.25;;;;;;;15.11;100.00;98040.09;5036105;28;20123;-80
2021/07/20 04:45:52;;;;;;;17.88;9.10;;;;;;;15.16;100.00;98039.06;5036764;28;20054;-80
2021/07/20 04:48:19;;;;;;;19.40;9.10;;;;;;;15.17;100.00;98037.97;5035713;28;20052;-80
2021/07/20 04:50:46;;;;;;;22.30;9.63;;;;;;;15.19;100.00;98049.31;5017113;28;20041;-80
2021/07/20 04:53:14;;;;;;;21.23;9.18;;;;;;;15.16;100.00;98037.16;5035641;28;20054;-80
2021/07/20 04:55:43;;;;;;;17.90;9.35;;;;;;;15.15;100.00;98040.22;5029811;28;20038;-80
2021/07/20 04:58:10;;;;;;;17.95;8.70;;;;;;;15.09;100.00;98042.34;5032889;28;20057;-80
2021/07/20 05:00:38;;;;;;;23.88;9.07;;;;;;;15.07;100.00;98044.63;5026346;28;20045;-80
2021/07/20 05:03:06;;;;;;;19.02;9.13;;;;;;;15.07;100.00;98054.72;5034700;28;20046;-81
2021/07/20 05:05:38;;;;;;;25.27;10.05;;;;;;;15.08;100.00;98042.66;5015330;28;20049;-81
2021/07/20 05:08:12;;;;;;;24.98;9.32;;;;;;;15.04;100.00;98053.47;5001628;28;20045;-82
2021/07/20 05:10:40;;;;;;;18.88;9.38;;;;;;;15.04;100.00;98048.00;5031874;28;20402;-81
2021/07/20 05:13:08;;;;;;;24.38;9.45;;;;;;;15.11;100.00;98045.53;5039806;28;20300;-81
2021/07/20 05:15:35;;;;;;;20.77;8.80;;;;;;;15.22;100.00;98046.75;5034536;28;20041;-82
2021/07/20 05:18:02;;;;;;;16.73;8.80;;;;;;;15.34;100.00;98065.88;5024239;28;20046;-80
2021/07/20 05:20:29;;;;;;;23.58;9.88;;;;;;;15.35;100.00;98055.75;5042141;28;20049;-81
2021/07/20 05:22:57;;;;;;;23.63;9.77;;;;;;;15.29;100.00;98062.56;5023755;28;20069;-83
2021/07/20 05:25:23;;;;;;;23.90;9.85;;;;;;;15.37;100.00;98051.56;5043147;28;20227;-82
2021/07/20 05:27:54;;;;;;;19.70;9.52;;;;;;;15.43;100.00;98061.13;5024243;28;20075;-83
2021/07/20 05:30:21;;;;;;;20.48;9.00;;;;;;;15.51;100.00;98054.81;5034900;28;20529;-83
2021/07/20 05:32:49;;;;;;;19.35;9.20;;;;;;;15.56;100.00;98054.59;5040186;28;20050;-83
2021/07/20 05:35:18;;;;;;;25.05;11.23;;;;;;;15.57;100.00;98056.22;5023350;28;20049;-80
2021/07/20 05:37:47;;;;;;;24.35;9.98;;;;;;;15.64;100.00;98066.56;5020470;28;20045;-83
2021/07/20 05:40:19;;;;;;;23.02;9.10;;;;;;;15.68;100.00;98070.22;5028690;28;20107;-83
2021/07/20 05:42:47;;;;;;;17.10;9.05;;;;;;;15.68;100.00;98064.75;5039580;28;21123;-82
2021/07/20 05:45:15;;;;;;;23.77;10.07;;;;;;;15.62;100.00;98068.84;5022603;28;20050;-83
2021/07/20 05:47:46;;;;;;;21.85;9.38;;;;;;;15.71;100.00;98072.28;5037844;28;20131;-85
2021/07/20 05:50:17;;;;;;;22.50;9.35;;;;;;;15.71;100.00;98066.81;5019113;28;20045;-81
2021/07/20 05:52:50;;;;;;;20.63;9.52;;;;;;;15.90;100.00;98075.28;5043135;28;20043;-83
2021/07/20 05:55:19;;;;;;;25.90;9.70;;;;;;;16.04;100.00;98073.03;5052535;28;20500;-84
2021/07/20 05:57:48;;;;;;;23.88;9.00;;;;;;;16.09;100.00;98081.00;5064532;28;20078;-83
2021/07/20 06:00:24;;;;;;;24.25;9.57;;;;;;;16.04;100.00;98075.75;5064694;28;20118;-84
2021/07/20 06:02:52;;;;;;;22.92;9.68;;;;;;;16.27;100.00;98086.25;5046836;28;20057;-84
2021/07/20 06:05:27;;;;;;;21.05;9.65;;;;;;;16.23;100.00;98088.88;5057296;28;20071;-83
2021/07/20 06:07:55;;;;;;;26.20;9.27;;;;;;;16.16;100.00;98081.22;5052237;28;20052;-84
2021/07/20 06:10:23;;;;;;;22.58;9.50;;;;;;;16.26;100.00;98085.44;5028921;28;20067;-85
2021/07/20 06:12:52;;;;;;;22.77;10.10;;;;;;;16.40;100.00;98082.38;5067977;28;20328;-84
2021/07/20 06:15:19;;;;;;;18.00;9.52;;;;;;;16.49;100.00;98085.81;5050113;28;20046;-85
2021/07/20 06:17:48;;;;;;;22.17;10.32;;;;;;;16.53;100.00;98084.81;5045372;28;20046;-82
2021/07/20 06:20:15;;;;;;;24.02;9.25;;;;;;;16.65;100.00;98078.53;5039231;28;20540;-82
2021/07/20 06:22:51;;;;;;;21.42;9.23;;;;;;;16.92;100.00;98087.97;5039501;28;20046;-84
2021/07/20 06:25:21;;;;;;;21.48;9.50;;;;;;;16.64;100.00;98093.34;5038540;28;20052;-80
2021/07/20 06:27:49;;;;;;;21.83;9.75;;;;;;;16.84;100.00;98086.94;5035490;28;20049;-82
2021/07/20 06:30:16;;;;;;;20.42;9.52;;;;;;;16.91;100.00;98091.81;5034256;28;20045;-82
2021/07/20 06:32:44;;;;;;;21.65;9.60;;;;;;;16.91;100.00;98089.09;5034858;28;20087;-83
2021/07/20 06:35:15;;;;;;;19.75;9.77;;;;;;;17.25;100.00;98096.75;5017979;28;20045;-80
2021/07/20 06:37:46;;;;;;;25.52;9.43;;;;;;;17.26;100.00;98107.38;5014518;28;20045;-80
2021/07/20 06:40:15;;;;;;;24.85;9.65;;;;;;;17.42;100.00;98108.22;5014124;28;20085;-81
2021/07/20 06:42:42;;;;;;;25.10;9.88;;;;;;;17.38;100.00;98104.59;5000344;28;20458;-80
2021/07/20 06:45:11;;;;;;;24.10;9.48;;;;;;;17.58;100.00;98100.09;5001609;28;20124;-83
2021/07/20 06:47:41;;;;;;;18.88;9.00;;;;;;;17.71;100.00;98104.38;5036425;28;20057;-83
2021/07/20 06:50:09;;;;;;;20.02;9.45;;;;;;;17.78;100.00;98096.34;5034957;28;20462;-84
2021/07/20 06:52:36;;;;;;;20.17;9.25;;;;;;;17.79;100.00;98105.34;5036892;28;20534;-83
2021/07/20 06:55:06;;;;;;;18.58;9.73;;;;;;;18.00;100.00;98105.94;5037649;28;20049;-82
2021/07/20 06:57:35;;;;;;;19.10;9.68;;;;;;;17.99;100.00;98101.59;5038307;28;20045;-80
2021/07/20 07:00:05;;;;;;;22.20;9.15;;;;;;;17.98;100.00;98110.97;5035584;28;20103;-82
2021/07/20 07:02:32;;;;;;;21.92;9.85;;;;;;;18.10;100.00;98107.34;5017801;28;20060;-83
2021/07/20 07:05:04;;;;;;;23.90;9.40;;;;;;;18.03;100.00;98099.75;5052295;28;20049;-81
2021/07/20 07:07:36;;;;;;;22.13;9.15;;;;;;;18.04;100.00;98098.56;5047180;28;20051;-81
2021/07/20 07:10:04;;;;;;;16.38;9.23;;;;;;;18.09;100.00;98097.53;5018958;28;20042;-83
2021/07/20 07:12:32;;;;;;;30.00;9.02;;;;;;;17.78;100.00;98112.75;5037772;28;20289;-82
2021/07/20 07:15:07;;;;;;;18.13;9.45;;;;;;;17.98;100.00;98098.06;5036367;28;20137;-82
2021/07/20 07:17:35;;;;;;;20.13;9.63;;;;;;;18.15;100.00;98101.59;5036258;28;20061;-81
2021/07/20 07:20:04;;;;;;;18.98;8.75;;;;;;;18.56;100.00;98103.84;5002703;28;20056;-82
2021/07/20 07:22:34;;;;;;;17.17;8.90;;;;;;;18.65;100.00;98102.53;5038947;28;20056;-81
2021/07/20 07:25:01;;;;;;;19.23;9.43;;;;;;;18.76;100.00;98104.72;5035838;28;20068;-84
2021/07/20 07:27:28;;;;;;;20.35;9.23;;;;;;;18.41;100.00;98101.88;5036820;28;20049;-83
2021/07/20 07:29:56;;;;;;;17.58;8.80;;;;;;;18.36;100.00;98107.63;5034870;28;20056;-83
2021/07/20 07:32:23;;;;;;;17.15;8.10;;;;;;;18.69;100.00;98102.59;5019620;28;20103;-82
2021/07/20 07:34:52;;;;;;;18.52;8.75;;;;;;;18.70;100.00;98106.13;5036992;28;20103;-82
2021/07/20 07:37:21;;;;;;;21.92;8.95;;;;;;;18.35;100.00;98112.31;5056640;28;20390;-80
2021/07/20 07:39:51;;;;;;;18.05;8.80;;;;;;;17.88;100.00;98123.25;5029709;28;20046;-82
2021/07/20 07:42:19;;;;;;;22.98;9.20;;;;;;;17.71;100.00;98114.50;5036345;28;20494;-83
2021/07/20 07:44:51;;;;;;;19.20;9.82;;;;;;;17.93;100.00;98116.69;5019548;28;20045;-83
2021/07/20 07:47:19;;;;;;;20.15;8.65;;;;;;;17.85;100.00;98123.13;5035936;28;20057;-82
2021/07/20 07:49:46;;;;;;;19.73;9.27;;;;;;;17.94;100.00;98129.22;5037677;28;20536;-84
2021/07/20 07:52:13;;;;;;;23.50;9.80;;;;;;;17.93;100.00;98127.66;5037447;28;20076;-82
2021/07/20 07:54:41;;;;;;;24.08;9.60;;;;;;;18.23;100.00;98125.31;5035016;28;20049;-84
2021/07/20 07:57:08;;;;;;;17.13;9.10;;;;;;;18.62;100.00;98113.41;5054415;28;20049;-81
2021/07/20 07:59:39;;;;;;;20.85;9.68;;;;;;;18.83;100.00;98110.34;5039180;28;20049;-83
2021/07/20 08:02:11;;;;;;;21.23;9.13;;;;;;;18.66;100.00;98117.81;5056202;28;20041;-80
2021/07/20 08:04:44;;;;;;;21.48;9.45;;;;;;;18.61;100.00;98117.28;5058112;28;20041;-83
2021/07/20 08:07:16;;;;;;;17.70;9.40;;;;;;;19.10;100.00;98117.63;5056564;28;20045;-82
2021/07/20 08:09:46;;;;;;;21.20;9.75;;;;;;;19.27;100.00;98103.50;5055048;28;20049;-81
2021/07/20 08:12:17;;;;;;;20.08;9.63;;;;;;;19.68;100.00;98110.25;5039643;28;20521;-81
2021/07/20 08:14:44;;;;;;;24.98;10.18;;;;;;;20.08;100.00;98109.84;5034781;28;20060;-82
2021/07/20 08:17:11;;;;;;;18.75;9.05;;;;;;;19.85;100.00;98105.09;5049779;28;20052;-83
2021/07/20 08:19:40;;;;;;;16.73;7.88;;;;;;;19.77;100.00;98106.13;5055201;28;20071;-81
2021/07/20 08:22:14;;;;;;;17.67;7.55;;;;;;;19.28;100.00;98105.09;5055900;28;20097;-83
2021/07/20 08:24:57;;;;;;;18.92;7.72;;;;;;;19.05;100.00;98112.41;5055206;28;20131;-85
2021/07/20 08:27:55;;;;;;;18.52;8.90;;;;;;;18.64;100.00;98111.09;5038628;28;20053;-83
2021/07/20 08:30:23;;;;;;;17.27;7.88;;;;;;;18.52;100.00;98111.19;5037314;28;20049;-83
2021/07/20 08:32:56;;;;;;;20.33;9.27;;;;;;;18.90;100.00;98114.06;5034879;28;20037;-83
2021/07/20 08:35:29;;;;;;;24.83;9.90;;;;;;;18.82;100.00;98115.03;5017052;28;20045;-82
2021/07/20 08:38:07;;;;;;;19.15;9.57;;;;;;;18.51;100.00;98085.72;5040319;28;20053;-82
2021/07/20 08:40:49;;;;;;;25.10;9.40;;;;;;;18.92;100.00;98110.94;5015609;28;20069;-81
2021/07/20 08:43:41;;;;;;;16.23;9.10;;;;;;;19.14;100.00;98105.59;5037155;28;20406;-80
2021/07/20 08:46:14;;;;;;;17.85;9.02;;;;;;;19.10;100.00;98112.94;5037094;28;20185;-81
2021/07/20 08:48:56;;;;;;;19.48;8.80;;;;;;;18.99;100.00;98109.19;5035908;28;20045;-81
2021/07/20 08:51:33;;;;;;;17.00;8.65;;;;;;;18.72;100.00;98109.31;5016468;28;20445;-82
2021/07/20 08:54:07;;;;;;;17.80;9.05;;;;;;;18.71;100.00;98100.31;5024637;28;20045;-81
2021/07/20 08:56:40;;;;;;;15.05;8.45;;;;;;;18.84;100.00;98106.47;5042879;28;20045;-79
2021/07/20 08:59:15;;;;;;;16.58;8.35;;;;;;;18.92;100.00;98103.50;5042647;28;20053;-82
2021/07/20 09:02:10;;;;;;;22.10;8.25;;;;;;;18.86;100.00;98110.44;5021843;28;20033;-81
2021/07/20 09:04:43;;;;;;;17.73;8.93;;;;;;;18.49;100.00;98117.38;5004324;28;20053;-81
2021/07/20 09:09:47;;;;;;;22.33;9.25;;;;;;;18.05;100.00;98113.88;4962165;28;20090;-85
2021/07/20 09:12:25;;;;;;;20.35;9.15;;;;;;;18.20;100.00;98115.84;4983687;28;20047;-83
2021/07/20 09:14:56;;;;;;;18.83;9.60;;;;;;;18.23;100.00;98106.13;4970705;28;20050;-84
2021/07/20 09:17:32;;;;;;;18.35;8.43;;;;;;;18.27;100.00;98117.97;4940341;29;20055;-87
2021/07/20 09:20:09;;;;;;;;;;;;;;;18.42;100.00;98126.22;4966147;28;20574;-84
2021/07/20 09:22:37;;;;;;;;;;;;;;;18.62;100.00;98122.44;5040688;23;19936;-83
2021/07/20 09:25:13;;;;;;;20.60;8.45;;;;;;;18.84;100.00;98111.97;5028744;28;20374;-83
2021/07/20 09:27:56;;;;;;;19.80;9.52;;;;;;;18.83;100.00;98118.59;5029269;28;20144;-82
2021/07/20 09:30:26;;;;;;;20.80;9.50;;;;;;;18.87;100.00;98105.72;5000987;28;20049;-82
2021/07/20 09:33:02;;;;;;;24.15;9.45;;;;;;;19.33;100.00;98113.03;5027278;28;20060;-82
2021/07/20 09:35:39;;;;;;;22.00;9.55;;;;;;;19.32;100.00;98108.72;5026011;28;20053;-83
2021/07/20 09:38:11;;;;;;;21.65;9.50;;;;;;;19.60;100.00;98108.53;5016779;28;20048;-82
2021/07/20 09:41:02;;;;;;;16.33;9.90;;;;;;;19.81;100.00;98106.19;5027514;28;20155;-83
2021/07/20 09:44:01;;;;;;;19.40;10.30;;;;;;;19.94;100.00;98102.13;5028339;28;20045;-83
2021/07/20 09:46:39;;;;;;;19.52;9.63;;;;;;;20.83;100.00;98101.69;5029110;28;20055;-81
2021/07/20 09:49:20;;;;;;;16.83;10.15;;;;;;;20.54;100.00;98111.47;5028949;28;20087;-83
2021/07/20 09:52:05;;;;;;;23.42;11.52;;;;;;;20.90;100.00;98102.59;5030556;28;20147;-83
2021/07/20 09:54:40;;;;;;;20.67;11.00;;;;;;;21.49;100.00;98101.06;5029434;28;20075;-82
2021/07/20 09:57:32;;;;;;;19.42;9.98;;;;;;;22.14;100.00;98104.19;5045594;28;20600;-82
2021/07/20 10:00:14;;;;;;;18.58;10.70;;;;;;;21.85;100.00;98099.50;4985180;28;20084;-83
2021/07/20 10:02:47;;;;;;;16.88;10.32;;;;;;;21.70;100.00;98088.31;5047163;28;20041;-82
2021/07/20 10:05:20;;;;;;;17.95;10.18;;;;;;;21.72;100.00;98090.72;5030599;28;20516;-83
2021/07/20 10:07:54;;;;;;;16.83;10.32;;;;;;;21.90;100.00;98091.72;5048163;28;20056;-85
2021/07/20 10:10:44;;;;;;;16.85;10.07;;;;;;;21.42;100.00;98089.97;5049903;28;20055;-82
2021/07/20 10:13:39;;;;;;;18.63;10.23;;;;;;;20.01;100.00;98087.72;5029120;28;20049;-81
2021/07/20 10:16:18;;;;;;;22.30;10.80;;;;;;;19.50;100.00;98084.38;5029244;28;20041;-83
2021/07/20 10:19:05;;;;;;;19.98;10.00;;;;;;;19.38;100.00;98088.09;5028074;28;20080;-82
2021/07/20 10:21:35;;;;;;;16.55;10.07;;;;;;;19.16;100.00;98081.31;5011178;28;20061;-81
2021/07/20 10:24:09;;;;;;;22.35;9.98;;;;;;;19.07;100.00;98079.94;5010439;28;20069;-82
2021/07/20 10:26:46;;;;;;;17.17;9.95;;;;;;;18.92;100.00;98080.75;5008904;28;20049;-82
2021/07/20 10:29:23;;;;;;;17.88;10.05;;;;;;;18.92;100.00;98089.00;5000944;28;20061;-83
2021/07/20 10:32:07;;;;;;;22.08;10.15;;;;;;;18.79;100.00;98088.31;5030350;28;20081;-83
2021/07/20 10:34:40;;;;;;;18.35;10.18;;;;;;;18.84;100.00;98092.75;5027727;28;20101;-82
2021/07/20 10:37:28;;;;;;;16.50;9.82;;;;;;;18.81;100.00;98094.25;5046306;28;20056;-83
2021/07/20 10:39:59;;;;;;;18.98;8.90;;;;;;;18.95;100.00;98089.09;5025331;28;20090;-82
2021/07/20 10:42:45;;;;;;;16.42;7.90;;;;;;;18.77;100.00;98084.34;5008602;28;20049;-81
2021/07/20 10:45:14;;;;;;;14.18;8.32;;;;;;;18.74;100.00;98096.81;5008246;28;20053;-82
2021/07/20 10:47:50;;;;;;;20.40;8.07;;;;;;;18.58;100.00;98085.09;5014947;28;20049;-82
2021/07/20 10:50:51;;;;;;;15.50;8.35;;;;;;;18.44;100.00;98098.44;5036259;28;20067;-82
2021/07/20 10:53:31;;;;;;;18.35;8.35;;;;;;;18.39;100.00;98099.50;5045963;28;20144;-81
2021/07/20 10:56:07;;;;;;;15.55;8.25;;;;;;;18.29;100.00;98086.31;5028052;28;20115;-83
2021/07/20 10:58:55;;;;;;;15.23;7.88;;;;;;;18.56;100.00;98098.34;5045238;28;20105;-83
2021/07/20 11:01:25;;;;;;;16.52;8.07;;;;;;;18.61;100.00;98092.59;5010063;28;20099;-83
2021/07/20 11:04:28;;;;;;;19.30;8.05;;;;;;;18.70;100.00;98092.41;5008634;28;20045;-83
2021/07/20 11:06:55;;;;;;;20.83;7.43;;;;;;;18.44;100.00;98098.44;5008855;28;20057;-81
2021/07/20 11:09:29;;;;;;;14.40;7.00;;;;;;;18.73;100.00;98094.44;5007705;28;20057;-82
2021/07/20 11:12:02;;;;;;;13.80;7.40;;;;;;;18.36;100.00;98105.69;5028041;28;20140;-82
2021/07/20 11:14:31;;;;;;;17.65;7.43;;;;;;;18.24;100.00;98111.25;5012017;28;20050;-82
2021/07/20 11:17:00;;;;;;;18.80;7.20;;;;;;;18.46;100.00;98109.84;5025158;28;20402;-81
2021/07/20 11:19:29;;;;;;;16.33;7.75;;;;;;;18.44;100.00;98123.91;4991394;28;20476;-82
2021/07/20 11:21:58;;;;;;;14.88;7.47;;;;;;;18.65;100.00;98120.91;5025759;28;20053;-85
2021/07/20 11:24:26;;;;;;;19.38;7.38;;;;;;;18.94;100.00;98108.66;5028227;28;20045;-83
2021/07/20 11:27:00;;;;;;;14.55;7.18;;;;;;;18.87;100.00;98116.72;4992618;28;20068;-84
2021/07/20 11:29:29;;;;;;;15.90;6.45;;;;;;;18.95;100.00;98115.72;5008934;28;20084;-83
2021/07/20 11:32:02;;;;;;;18.92;6.90;;;;;;;19.38;100.00;98112.81;5024198;28;20057;-86
2021/07/20 11:34:42;;;;;;;15.30;6.93;;;;;;;19.61;100.00;98116.41;5045883;28;20057;-84
2021/07/20 11:37:15;;;;;;;15.07;6.32;;;;;;;20.04;100.00;98115.28;5046058;28;20052;-84
2021/07/20 11:40:10;;;;;;;15.88;6.53;;;;;;;19.84;100.00;98113.72;5019333;28;20041;-84
2021/07/20 11:42:51;;;;;;;18.05;7.22;;;;;;;20.16;100.00;98117.03;5006497;28;20152;-86
2021/07/20 11:45:19;;;;;;;14.73;6.88;;;;;;;20.54;100.00;98113.41;4997902;28;20359;-84